createdAt,value
2022-11-19T00:01:28.853Z,25.33
2022-11-19T00:03:56.655Z,25.43
2022-11-19T00:06:26.859Z,24.33
2022-11-19T00:08:54.624Z,25.27
2022-11-19T00:11:46.286Z,26.37
2022-11-19T00:14:15.367Z,23.97
2022-11-19T00:16:44.124Z,25.33
2022-11-19T00:19:12.689Z,25.97
2022-11-19T00:21:39.747Z,24.77
2022-11-19T00:24:07.829Z,26.17
2022-11-19T00:26:35.683Z,26.00
2022-11-19T00:29:03.110Z,24.87
2022-11-19T00:31:30.240Z,26.03
2022-11-19T00:33:57.264Z,25.47
2022-11-19T00:36:24.331Z,26.17
2022-11-19T00:38:51.467Z,26.33
2022-11-19T00:41:18.714Z,27.13
2022-11-19T00:43:49.667Z,25.30
2022-11-19T00:46:21.024Z,27.27
2022-11-19T00:48:50.345Z,24.90
2022-11-19T00:51:20.138Z,24.83
2022-11-19T00:53:47.408Z,26.07
2022-11-19T00:56:17.886Z,25.43
2022-11-19T00:58:45.947Z,25.33
2022-11-19T01:01:15.039Z,25.47
2022-11-19T01:03:45.373Z,26.93
2022-11-19T01:06:17.801Z,27.07
2022-11-19T01:08:47.210Z,25.53
2022-11-19T01:11:18.814Z,27.27
2022-11-19T01:13:46.258Z,27.40
2022-11-19T01:16:17.858Z,25.63
2022-11-19T01:18:48.595Z,26.13
2022-11-19T01:21:16.863Z,25.33
2022-11-19T01:23:44.891Z,25.80
2022-11-19T01:26:13.350Z,26.93
2022-11-19T01:28:41.520Z,25.70
2022-11-19T01:31:29.963Z,28.27
2022-11-19T01:33:58.219Z,28.10
2022-11-19T01:36:29.180Z,27.27
2022-11-19T01:38:57.315Z,28.90
2022-11-19T01:41:29.460Z,26.20
2022-11-19T01:44:00.360Z,26.57
2022-11-19T01:46:31.579Z,28.17
2022-11-19T01:49:16.204Z,28.27
2022-11-19T01:51:56.102Z,28.53
2022-11-19T01:54:36.020Z,28.00
2022-11-19T01:57:13.261Z,30.90
2022-11-19T01:59:42.205Z,28.03
2022-11-19T02:02:09.500Z,30.40
2022-11-19T02:04:37.069Z,30.23
2022-11-19T02:07:04.997Z,28.97
2022-11-19T02:09:34.178Z,30.07
2022-11-19T02:12:36.085Z,28.13
2022-11-19T02:15:32.339Z,28.57
2022-11-19T02:18:29.714Z,27.08
2022-11-19T02:21:28.478Z,27.93
2022-11-19T02:24:01.869Z,28.33
2022-11-19T02:27:08.016Z,29.07
2022-11-19T02:29:59.071Z,29.37
2022-11-19T02:32:51.503Z,29.13
2022-11-19T02:35:44.973Z,28.67
2022-11-19T02:38:36.625Z,29.13
2022-11-19T02:41:29.338Z,28.73
2022-11-19T02:44:36.300Z,28.27
2022-11-19T02:47:09.848Z,29.92
2022-11-19T02:49:46.404Z,28.83
2022-11-19T02:52:18.228Z,29.67
2022-11-19T02:54:45.346Z,29.17
2022-11-19T02:57:14.155Z,29.73
2022-11-19T03:00:23.567Z,31.30
2022-11-19T03:03:29.979Z,29.90
2022-11-19T03:06:13.145Z,32.43
2022-11-19T03:08:40.377Z,33.10
2022-11-19T03:11:24.747Z,34.87
2022-11-19T03:14:39.557Z,34.17
2022-11-19T03:17:44.756Z,33.80
2022-11-19T03:20:27.856Z,34.33
2022-11-19T03:23:02.671Z,34.13
2022-11-19T03:25:38.848Z,35.10
2022-11-19T03:28:13.082Z,33.40
2022-11-19T03:30:42.897Z,32.77
2022-11-19T03:33:37.508Z,34.17
2022-11-19T03:36:35.285Z,32.60
2022-11-19T03:39:14.280Z,33.47
2022-11-19T03:41:42.569Z,36.30
2022-11-19T03:44:23.317Z,32.47
2022-11-19T03:46:57.211Z,34.53
2022-11-19T03:49:32.062Z,35.67
2022-11-19T03:52:07.333Z,34.80
2022-11-19T03:54:39.272Z,34.17
2022-11-19T03:57:08.916Z,35.20
2022-11-19T03:59:39.260Z,33.40
2022-11-19T04:02:09.918Z,32.43
2022-11-19T04:04:38.412Z,33.13
2022-11-19T04:07:18.380Z,32.90
2022-11-19T04:09:45.726Z,33.20
2022-11-19T04:12:19.619Z,32.93
2022-11-19T04:14:47.202Z,35.33
2022-11-19T04:17:14.965Z,32.43
2022-11-19T04:19:42.388Z,31.53
2022-11-19T04:22:09.998Z,32.10
2022-11-19T04:24:37.048Z,31.77
2022-11-19T04:27:04.641Z,30.90
2022-11-19T04:29:31.723Z,29.47
2022-11-19T04:31:58.811Z,30.83
2022-11-19T04:34:25.834Z,28.67
2022-11-19T04:36:52.875Z,30.83
2022-11-19T04:39:20.357Z,28.67
2022-11-19T04:41:47.659Z,28.07
2022-11-19T04:44:14.724Z,28.97
2022-11-19T04:46:41.695Z,28.53
2022-11-19T04:49:08.774Z,27.87
2022-11-19T04:51:35.872Z,27.80
2022-11-19T04:54:03.041Z,28.23
2022-11-19T04:56:30.235Z,29.07
2022-11-19T04:58:57.276Z,28.53
2022-11-19T05:01:24.446Z,28.33
2022-11-19T05:03:51.509Z,28.43
2022-11-19T05:06:19.100Z,27.10
2022-11-19T05:08:46.149Z,26.93
2022-11-19T05:11:13.256Z,27.73
2022-11-19T05:13:40.330Z,26.50
2022-11-19T05:16:07.708Z,26.43
2022-11-19T05:18:34.922Z,25.43
2022-11-19T05:21:02.090Z,26.13
2022-11-19T05:23:29.198Z,25.37
2022-11-19T05:25:56.299Z,26.07
2022-11-19T05:28:37.567Z,26.80
2022-11-19T05:31:05.763Z,26.37
2022-11-19T05:33:34.537Z,26.87
2022-11-19T05:36:02.739Z,27.50
2022-11-19T05:38:29.886Z,27.80
2022-11-19T05:40:56.934Z,26.70
2022-11-19T05:43:24.011Z,26.70
2022-11-19T05:45:51.053Z,26.37
2022-11-19T05:48:18.103Z,24.43
2022-11-19T05:50:45.241Z,24.90
2022-11-19T05:53:12.293Z,25.33
2022-11-19T05:55:42.301Z,28.13
2022-11-19T05:58:09.703Z,25.70
2022-11-19T06:00:36.917Z,24.40
2022-11-19T06:03:04.239Z,24.57
2022-11-19T06:05:35.894Z,24.10
2022-11-19T06:08:06.548Z,22.33
2022-11-19T06:10:33.653Z,23.87
2022-11-19T06:13:01.507Z,23.37
2022-11-19T06:15:28.564Z,23.67
2022-11-19T06:17:57.193Z,24.07
2022-11-19T06:20:24.252Z,23.73
2022-11-19T06:22:52.125Z,24.07
2022-11-19T06:25:19.210Z,22.63
2022-11-19T06:27:46.433Z,25.57
2022-11-19T06:30:14.836Z,24.70
2022-11-19T06:32:42.858Z,23.67
2022-11-19T06:35:10.793Z,23.30
2022-11-19T06:37:37.867Z,24.03
2022-11-19T06:40:05.645Z,23.87
2022-11-19T06:42:38.987Z,22.87
2022-11-19T06:45:11.596Z,24.23
2022-11-19T06:47:40.520Z,24.10
2022-11-19T06:50:09.613Z,22.63
2022-11-19T06:52:36.833Z,22.97
2022-11-19T06:55:04.915Z,23.00
2022-11-19T06:57:32.218Z,21.17
2022-11-19T06:59:59.281Z,21.40
2022-11-19T07:02:26.403Z,21.23
2022-11-19T07:04:53.431Z,21.77
2022-11-19T07:07:21.012Z,23.53
2022-11-19T07:09:48.379Z,21.37
2022-11-19T07:12:15.443Z,22.80
2022-11-19T07:14:42.616Z,22.33
2022-11-19T07:17:09.686Z,23.57
2022-11-19T07:19:36.758Z,21.93
2022-11-19T07:22:03.872Z,21.83
2022-11-19T07:24:30.963Z,21.37
2022-11-19T07:26:58.048Z,21.87
2022-11-19T07:29:25.190Z,21.97
2022-11-19T07:31:53.367Z,22.03
2022-11-19T07:34:21.236Z,20.80
2022-11-19T07:36:50.181Z,21.23
2022-11-19T07:39:17.891Z,21.80
2022-11-19T07:42:04.011Z,23.20
2022-11-19T07:44:31.061Z,21.08
2022-11-19T07:46:58.249Z,21.50
2022-11-19T07:49:26.223Z,23.00
2022-11-19T07:51:54.526Z,20.70
2022-11-19T07:54:21.786Z,21.50
2022-11-19T07:56:48.839Z,20.90
2022-11-19T07:59:15.955Z,21.83
2022-11-19T08:01:43.502Z,20.00
2022-11-19T08:04:10.875Z,20.17
2022-11-19T08:06:38.374Z,21.40
2022-11-19T08:09:06.358Z,20.20
2022-11-19T08:11:33.628Z,19.50
2022-11-19T08:14:03.696Z,22.00
2022-11-19T08:16:52.182Z,22.10
2022-11-19T08:19:19.743Z,21.93
2022-11-19T08:21:47.928Z,20.40
2022-11-19T08:24:18.622Z,21.63
2022-11-19T08:26:46.071Z,19.67
2022-11-19T08:29:17.006Z,18.97
2022-11-19T08:31:47.208Z,20.20
2022-11-19T08:34:16.196Z,19.13
2022-11-19T08:36:43.579Z,18.73
2022-11-19T08:39:11.261Z,19.50
2022-11-19T08:41:56.794Z,21.07
2022-11-19T08:44:24.101Z,18.17
2022-11-19T08:46:51.185Z,17.73
2022-11-19T08:49:18.792Z,19.63
2022-11-19T08:51:45.867Z,17.30
2022-11-19T08:54:13.392Z,18.27
2022-11-19T08:56:40.676Z,18.50
2022-11-19T08:59:08.168Z,18.70
2022-11-19T09:01:35.730Z,17.33
2022-11-19T09:04:03.049Z,16.90
2022-11-19T09:06:30.326Z,17.23
2022-11-19T09:08:58.435Z,17.30
2022-11-19T09:11:25.744Z,17.40
2022-11-19T09:13:53.015Z,17.90
2022-11-19T09:16:20.060Z,17.50
2022-11-19T09:18:47.121Z,16.90
2022-11-19T09:21:14.578Z,16.97
2022-11-19T09:23:42.685Z,17.77
2022-11-19T09:26:16.329Z,15.83
2022-11-19T09:28:44.209Z,17.80
2022-11-19T09:31:18.107Z,17.30
2022-11-19T09:33:51.874Z,17.10
2022-11-19T09:36:20.498Z,15.87
2022-11-19T09:38:48.896Z,18.17
2022-11-19T09:41:40.136Z,17.60
2022-11-19T09:44:47.442Z,15.93
2022-11-19T09:47:56.554Z,15.23
2022-11-19T09:50:25.600Z,16.10
2022-11-19T09:53:19.202Z,15.77
2022-11-19T09:55:49.338Z,15.50
2022-11-19T09:58:32.662Z,13.93
2022-11-19T10:01:03.115Z,15.33
2022-11-19T10:03:33.638Z,15.67
2022-11-19T10:06:09.906Z,14.37
2022-11-19T10:12:13.323Z,13.10
2022-11-19T10:15:09.054Z,15.03
2022-11-19T10:17:45.299Z,14.73
2022-11-19T10:20:39.953Z,14.80
2022-11-19T10:24:06.304Z,14.63
2022-11-19T10:26:41.452Z,13.63
2022-11-19T10:29:23.487Z,15.00
2022-11-19T10:31:51.750Z,13.93
2022-11-19T10:34:30.140Z,14.97
2022-11-19T10:37:17.948Z,13.70
2022-11-19T10:40:01.875Z,13.57
2022-11-19T10:42:39.824Z,14.73
2022-11-19T10:45:28.702Z,14.20
2022-11-19T10:48:25.535Z,13.93
2022-11-19T10:50:59.237Z,12.13
2022-11-19T10:53:36.364Z,12.43
2022-11-19T10:56:29.591Z,10.80
2022-11-19T10:59:01.862Z,10.60
2022-11-19T11:01:33.994Z,10.90
2022-11-19T11:04:26.251Z,11.57
2022-11-19T11:07:05.400Z,9.60
2022-11-19T11:09:43.714Z,10.13
2022-11-19T11:12:43.009Z,10.43
2022-11-19T11:15:21.553Z,10.73
2022-11-19T11:18:04.938Z,10.60
2022-11-19T11:20:32.957Z,11.80
2022-11-19T11:23:15.375Z,12.80
2022-11-19T11:26:12.569Z,12.70
2022-11-19T11:29:22.029Z,12.73
2022-11-19T11:31:49.316Z,13.20
2022-11-19T11:34:32.975Z,12.43
2022-11-19T11:37:03.304Z,13.23
2022-11-19T11:39:44.313Z,12.57
2022-11-19T11:42:18.091Z,12.10
2022-11-19T11:44:56.355Z,12.57
2022-11-19T11:47:29.908Z,13.10
2022-11-19T11:50:20.535Z,11.70
2022-11-19T11:52:51.454Z,12.67
2022-11-19T11:55:24.585Z,13.27
2022-11-19T11:58:06.271Z,14.77
2022-11-19T12:00:40.094Z,17.20
2022-11-19T12:03:19.002Z,13.17
2022-11-19T12:06:07.067Z,13.83
2022-11-19T12:09:03.275Z,12.90
2022-11-19T12:11:56.581Z,12.40
2022-11-19T12:15:26.650Z,13.17
2022-11-19T12:18:11.803Z,13.03
2022-11-19T12:20:59.192Z,13.80
2022-11-19T12:23:41.701Z,13.27
2022-11-19T12:26:52.792Z,12.43
2022-11-19T12:30:12.436Z,12.33
2022-11-19T12:32:56.430Z,12.73
2022-11-19T12:36:04.088Z,13.43
2022-11-19T12:38:39.716Z,14.43
2022-11-19T12:41:15.834Z,13.45
2022-11-19T12:44:00.431Z,14.53
2022-11-19T12:46:33.146Z,12.33
2022-11-19T12:49:15.117Z,13.37
2022-11-19T12:51:48.134Z,13.67
2022-11-19T12:54:35.552Z,13.40
2022-11-19T12:57:27.239Z,12.17
2022-11-19T13:00:19.226Z,12.50
2022-11-19T13:03:21.248Z,12.67
2022-11-19T13:06:00.512Z,12.67
2022-11-19T13:08:30.261Z,12.30
2022-11-19T13:11:18.433Z,12.87
2022-11-19T13:14:13.734Z,12.50
2022-11-19T13:16:42.933Z,11.40
2022-11-19T13:19:32.247Z,11.50
2022-11-19T13:22:20.299Z,11.37
2022-11-19T13:24:58.680Z,11.10
2022-11-19T13:27:29.191Z,10.93
2022-11-19T13:30:04.509Z,10.63
2022-11-19T13:32:51.005Z,11.93
2022-11-19T13:35:45.990Z,11.53
2022-11-19T13:38:32.057Z,12.13
2022-11-19T13:41:24.146Z,11.80
2022-11-19T13:44:15.439Z,11.07
2022-11-19T13:46:49.388Z,11.60
2022-11-19T13:49:37.876Z,11.90
2022-11-19T13:52:29.968Z,11.97
2022-11-19T13:54:59.821Z,13.20
2022-11-19T13:57:33.612Z,12.80
2022-11-19T14:00:06.467Z,12.30
2022-11-19T14:03:08.054Z,12.23
2022-11-19T14:06:05.134Z,11.57
2022-11-19T14:08:46.844Z,12.03
2022-11-19T14:12:01.879Z,12.70
2022-11-19T14:15:35.199Z,11.77
2022-11-19T14:18:43.291Z,10.53
2022-11-19T14:22:03.602Z,12.00
2022-11-19T14:24:49.180Z,12.10
2022-11-19T14:27:32.493Z,11.18
2022-11-19T14:30:11.410Z,12.00
2022-11-19T14:32:47.244Z,12.07
2022-11-19T14:35:26.514Z,11.57
2022-11-19T14:38:06.649Z,11.53
2022-11-19T14:40:35.052Z,12.87
2022-11-19T14:43:22.333Z,12.57
2022-11-19T14:46:04.903Z,11.98
2022-11-19T14:48:39.743Z,12.73
2022-11-19T14:51:37.411Z,12.32
2022-11-19T14:54:17.716Z,12.00
2022-11-19T14:56:59.845Z,12.90
2022-11-19T14:59:33.144Z,12.47
2022-11-19T15:02:39.966Z,11.70
2022-11-19T15:05:12.914Z,11.02
2022-11-19T15:08:02.817Z,11.43
2022-11-19T15:10:33.030Z,12.53
2022-11-19T15:13:27.464Z,12.03
2022-11-19T15:16:27.738Z,13.60
2022-11-19T15:19:22.004Z,13.63
2022-11-19T15:22:17.292Z,13.10
2022-11-19T15:25:16.087Z,13.30
2022-11-19T15:28:20.088Z,14.13
2022-11-19T15:31:30.954Z,13.27
2022-11-19T15:34:56.160Z,14.00
2022-11-19T15:37:43.415Z,13.73
2022-11-19T15:40:18.886Z,14.80
2022-11-19T15:43:24.171Z,14.02
2022-11-19T15:46:30.429Z,13.47
2022-11-19T15:49:20.807Z,15.85
2022-11-19T15:52:26.662Z,14.40
2022-11-19T15:55:20.732Z,13.87
2022-11-19T15:57:51.254Z,13.60
2022-11-19T16:00:23.529Z,13.30
2022-11-19T16:02:52.911Z,15.07
2022-11-19T16:05:29.799Z,13.67
2022-11-19T16:08:03.603Z,13.40
2022-11-19T16:10:37.152Z,14.00
2022-11-19T16:13:39.974Z,13.40
2022-11-19T16:16:39.318Z,14.90
2022-11-19T16:19:06.628Z,13.73
2022-11-19T16:21:38.409Z,12.57
2022-11-19T16:24:32.045Z,13.50
2022-11-19T16:27:01.666Z,14.37
2022-11-19T16:29:30.668Z,14.03
2022-11-19T16:32:02.415Z,14.37
2022-11-19T16:34:33.024Z,14.83
2022-11-19T16:37:00.564Z,15.23
2022-11-19T16:39:35.860Z,16.67
2022-11-19T16:42:19.097Z,14.65
2022-11-19T16:44:48.661Z,13.97
2022-11-19T16:47:33.076Z,15.23
2022-11-19T16:50:27.975Z,15.13
2022-11-19T16:52:56.999Z,14.80
2022-11-19T16:55:24.310Z,14.93
2022-11-19T16:57:56.567Z,16.47
2022-11-19T17:00:30.878Z,15.73
2022-11-19T17:02:58.683Z,17.43
2022-11-19T17:05:30.961Z,16.30
2022-11-19T17:08:19.808Z,14.70
2022-11-19T17:10:47.198Z,15.73
2022-11-19T17:13:20.234Z,14.90
2022-11-19T17:15:51.648Z,14.30
2022-11-19T17:18:33.406Z,15.70
2022-11-19T17:21:02.392Z,15.83
2022-11-19T17:23:34.788Z,15.53
2022-11-19T17:26:15.660Z,15.03
2022-11-19T17:28:47.721Z,16.40
2022-11-19T17:31:26.953Z,16.33
2022-11-19T17:34:10.016Z,15.13
2022-11-19T17:36:37.993Z,16.80
2022-11-19T17:39:13.523Z,16.03
2022-11-19T17:42:01.771Z,16.55
2022-11-19T17:44:40.711Z,15.73
2022-11-19T17:47:23.532Z,16.20
2022-11-19T17:49:52.397Z,17.10
2022-11-19T17:52:28.514Z,16.27
2022-11-19T17:55:14.771Z,16.17
2022-11-19T17:57:42.865Z,15.60
2022-11-19T18:00:10.967Z,21.83
2022-11-19T18:02:39.454Z,21.17
2022-11-19T18:05:28.988Z,18.17
2022-11-19T18:07:57.554Z,17.40
2022-11-19T18:10:25.266Z,17.43
2022-11-19T18:12:52.852Z,16.20
2022-11-19T18:15:21.331Z,16.47
2022-11-19T18:17:48.761Z,17.33
2022-11-19T18:20:16.776Z,16.33
2022-11-19T18:22:44.546Z,16.10
2022-11-19T18:25:16.769Z,16.30
2022-11-19T18:27:45.896Z,16.80
2022-11-19T18:30:14.391Z,16.03
2022-11-19T18:32:42.488Z,15.37
2022-11-19T18:35:19.437Z,16.33
2022-11-19T18:37:48.181Z,16.07
2022-11-19T18:40:17.192Z,15.83
2022-11-19T18:43:03.581Z,17.13
2022-11-19T18:45:32.080Z,17.23
2022-11-19T18:47:59.830Z,15.27
2022-11-19T18:50:30.312Z,17.27
2022-11-19T18:52:58.328Z,16.87
2022-11-19T18:55:25.729Z,17.83
2022-11-19T18:57:53.382Z,17.30
2022-11-19T19:00:21.567Z,19.47
2022-11-19T19:02:49.170Z,17.67
2022-11-19T19:05:17.918Z,16.67
2022-11-19T19:07:45.598Z,16.13
2022-11-19T19:10:29.025Z,17.20
2022-11-19T19:12:56.472Z,18.23
2022-11-19T19:15:24.143Z,17.00
2022-11-19T19:17:52.019Z,16.70
2022-11-19T19:20:20.215Z,18.87
2022-11-19T19:22:48.141Z,17.33
2022-11-19T19:25:15.958Z,20.23
2022-11-19T19:27:43.395Z,18.73
2022-11-19T19:30:11.976Z,18.13
2022-11-19T19:32:40.176Z,18.93
2022-11-19T19:35:09.519Z,18.30
2022-11-19T19:37:40.326Z,18.67
2022-11-19T19:40:11.252Z,16.80
2022-11-19T19:42:42.022Z,18.73
2022-11-19T19:45:10.649Z,16.60
2022-11-19T19:47:39.370Z,18.90
2022-11-19T19:50:07.928Z,17.60
2022-11-19T19:52:35.736Z,17.90
2022-11-19T19:55:03.651Z,18.80
2022-11-19T19:57:31.466Z,18.10
2022-11-19T20:00:00.089Z,19.03
2022-11-19T20:02:29.272Z,19.53
2022-11-19T20:04:57.210Z,16.50
2022-11-19T20:07:25.337Z,17.63
2022-11-19T20:09:53.020Z,17.77
2022-11-19T20:12:20.686Z,18.27
2022-11-19T20:14:48.466Z,18.57
2022-11-19T20:17:16.206Z,18.83
2022-11-19T20:19:44.067Z,19.13
2022-11-19T20:22:13.039Z,19.23
2022-11-19T20:24:41.056Z,18.33
2022-11-19T20:27:08.957Z,19.17
2022-11-19T20:29:36.927Z,17.20
2022-11-19T20:32:05.249Z,18.70
2022-11-19T20:34:33.338Z,18.20
2022-11-19T20:37:01.468Z,17.80
2022-11-19T20:39:29.699Z,16.77
2022-11-19T20:42:15.969Z,17.80
2022-11-19T20:44:43.689Z,17.53
2022-11-19T20:47:13.054Z,17.50
2022-11-19T20:49:41.763Z,16.47
2022-11-19T20:52:11.071Z,17.43
2022-11-19T20:54:38.920Z,18.13
2022-11-19T20:57:07.145Z,17.63
2022-11-19T20:59:36.897Z,17.83
2022-11-19T21:02:04.810Z,17.67
2022-11-19T21:04:36.839Z,18.13
2022-11-19T21:07:07.022Z,17.47
2022-11-19T21:09:34.671Z,17.60
2022-11-19T21:12:02.406Z,16.77
2022-11-19T21:14:30.095Z,18.20
2022-11-19T21:16:57.609Z,17.37
2022-11-19T21:19:25.055Z,18.50
2022-11-19T21:21:52.490Z,17.53
2022-11-19T21:24:20.292Z,16.63
2022-11-19T21:26:47.928Z,18.83
2022-11-19T21:29:20.152Z,18.10
2022-11-19T21:31:49.159Z,18.97
2022-11-19T21:34:23.079Z,17.67
2022-11-19T21:36:51.198Z,17.70
2022-11-19T21:39:20.058Z,18.43
2022-11-19T21:41:47.743Z,19.27
2022-11-19T21:44:19.929Z,17.97
2022-11-19T21:46:49.135Z,17.40
2022-11-19T21:49:16.266Z,17.43
2022-11-19T21:51:44.696Z,16.90
2022-11-19T21:54:11.887Z,17.40
2022-11-19T21:56:39.319Z,17.10
2022-11-19T21:59:07.672Z,17.83
2022-11-19T22:01:35.336Z,16.47
2022-11-19T22:04:02.690Z,16.43
2022-11-19T22:06:31.941Z,17.03
2022-11-19T22:08:59.211Z,16.17
2022-11-19T22:11:29.249Z,16.77
2022-11-19T22:14:06.604Z,17.50
2022-11-19T22:16:37.633Z,16.20
2022-11-19T22:19:06.043Z,17.50
2022-11-19T22:21:33.969Z,16.17
2022-11-19T22:26:45.692Z,17.20
2022-11-19T22:29:12.806Z,17.27
2022-11-19T22:31:39.907Z,16.00
2022-11-19T22:34:06.971Z,17.17
2022-11-19T22:36:34.348Z,16.10
2022-11-19T22:39:01.777Z,16.83
2022-11-19T22:41:28.932Z,16.77
2022-11-19T22:43:56.229Z,15.90
2022-11-19T22:46:26.082Z,17.47
2022-11-19T22:48:53.127Z,17.47
2022-11-19T22:51:23.373Z,16.77
2022-11-19T22:53:52.709Z,17.43
2022-11-19T22:56:26.470Z,16.70
2022-11-19T22:58:54.833Z,17.20
2022-11-19T23:01:28.823Z,16.00
2022-11-19T23:03:58.014Z,17.60
2022-11-19T23:06:25.874Z,16.40
2022-11-19T23:08:53.120Z,17.73
2022-11-19T23:11:42.135Z,16.93
2022-11-19T23:14:13.704Z,16.80
2022-11-19T23:16:42.569Z,17.37
2022-11-19T23:19:10.820Z,16.70
2022-11-19T23:21:38.984Z,16.77
2022-11-19T23:24:06.900Z,15.57
2022-11-19T23:26:34.617Z,16.27
2022-11-19T23:29:02.232Z,17.37
2022-11-19T23:31:34.237Z,17.70
2022-11-19T23:34:01.284Z,17.40
2022-11-19T23:36:32.059Z,17.37
2022-11-19T23:38:59.996Z,15.90
2022-11-19T23:41:27.881Z,15.73
2022-11-19T23:43:55.843Z,16.93
2022-11-19T23:46:34.669Z,15.93
2022-11-19T23:49:05.668Z,15.57
2022-11-19T23:51:38.557Z,15.50
2022-11-19T23:54:06.919Z,16.03
2022-11-19T23:56:36.114Z,16.10
2022-11-19T23:59:05.281Z,16.53
